createdAt,value
2023-02-16T00:01:21.011Z,53.50
2023-02-16T00:03:48.041Z,53.30
2023-02-16T00:06:16.258Z,53.10
2023-02-16T00:08:44.041Z,53.40
2023-02-16T00:11:34.480Z,53.60
2023-02-16T00:14:01.304Z,53.60
2023-02-16T00:16:27.978Z,53.60
2023-02-16T00:18:54.611Z,53.80
2023-02-16T00:21:21.472Z,53.80
2023-02-16T00:23:48.487Z,54.10
2023-02-16T00:26:16.342Z,53.80
2023-02-16T00:28:43.184Z,53.70
2023-02-16T00:31:20.385Z,53.90
2023-02-16T00:33:48.030Z,53.70
2023-02-16T00:36:14.663Z,53.50
2023-02-16T00:38:41.455Z,53.60
2023-02-16T00:41:34.846Z,53.90
2023-02-16T00:44:01.515Z,53.70
2023-02-16T00:46:28.370Z,53.50
2023-02-16T00:48:54.947Z,53.60
2023-02-16T00:51:25.999Z,53.90
2023-02-16T00:53:52.967Z,53.60
2023-02-16T00:56:20.542Z,53.50
2023-02-16T00:58:48.952Z,53.50
2023-02-16T01:01:17.781Z,53.70
2023-02-16T01:03:44.578Z,53.70
2023-02-16T01:06:30.479Z,53.50
2023-02-16T01:09:21.539Z,53.80
2023-02-16T01:11:48.127Z,53.90
2023-02-16T01:14:14.706Z,53.50
2023-02-16T01:16:42.176Z,53.20
2023-02-16T01:19:10.710Z,53.50
2023-02-16T01:21:37.270Z,53.40
2023-02-16T01:24:03.823Z,53.50
2023-02-16T01:26:32.371Z,53.40
2023-02-16T01:28:58.955Z,53.20
2023-02-16T01:31:25.611Z,53.20
2023-02-16T01:33:52.281Z,53.40
2023-02-16T01:36:23.826Z,53.20
2023-02-16T01:38:50.481Z,53.30
2023-02-16T01:41:29.277Z,53.30
2023-02-16T01:44:01.828Z,53.20
2023-02-16T01:46:39.542Z,53.20
2023-02-16T01:49:11.798Z,53.20
2023-02-16T01:51:45.991Z,53.10
2023-02-16T01:54:17.937Z,52.80
2023-02-16T01:56:49.667Z,52.70
2023-02-16T01:59:34.351Z,52.90
2023-02-16T02:02:04.543Z,52.80
2023-02-16T02:05:01.274Z,52.50
2023-02-16T02:07:31.800Z,53.20
2023-02-16T02:10:13.916Z,52.40
2023-02-16T02:12:52.776Z,52.30
2023-02-16T02:15:20.600Z,52.30
2023-02-16T02:17:47.182Z,52.40
2023-02-16T02:20:53.417Z,52.50
2023-02-16T02:23:31.891Z,52.50
2023-02-16T02:26:07.620Z,52.40
2023-02-16T02:28:39.547Z,52.40
2023-02-16T02:31:26.514Z,52.50
2023-02-16T02:33:53.142Z,52.40
2023-02-16T02:36:20.068Z,52.20
2023-02-16T02:38:46.604Z,52.30
2023-02-16T02:41:13.139Z,52.40
2023-02-16T02:43:39.838Z,52.40
2023-02-16T02:46:18.989Z,52.20
2023-02-16T02:48:45.573Z,52.20
2023-02-16T02:51:33.632Z,52.20
2023-02-16T02:54:21.330Z,52.00
2023-02-16T02:57:09.532Z,52.20
2023-02-16T02:59:56.695Z,53.10
2023-02-16T03:02:24.191Z,52.10
2023-02-16T03:04:52.366Z,52.20
2023-02-16T03:07:19.975Z,52.10
2023-02-16T03:09:46.524Z,52.30
2023-02-16T03:12:31.831Z,52.00
2023-02-16T03:14:59.799Z,52.20
2023-02-16T03:17:48.262Z,52.00
2023-02-16T03:20:33.884Z,52.00
2023-02-16T03:23:20.044Z,51.80
2023-02-16T03:26:05.133Z,51.90
2023-02-16T03:28:52.211Z,51.80
2023-02-16T03:31:21.629Z,52.10
2023-02-16T03:33:54.537Z,51.90
2023-02-16T03:36:26.144Z,52.30
2023-02-16T03:38:54.322Z,51.90
2023-02-16T03:41:20.896Z,52.00
2023-02-16T03:43:47.443Z,51.60
2023-02-16T03:46:14.113Z,51.50
2023-02-16T03:48:40.783Z,51.40
2023-02-16T03:51:07.339Z,51.50
2023-02-16T03:53:33.914Z,51.50
2023-02-16T03:56:00.704Z,51.60
2023-02-16T03:58:27.304Z,51.40
2023-02-16T04:00:54.036Z,51.50
2023-02-16T04:03:20.798Z,51.40
2023-02-16T04:05:47.351Z,51.50
2023-02-16T04:08:14.021Z,51.40
2023-02-16T04:10:40.605Z,51.50
2023-02-16T04:13:07.190Z,51.30
2023-02-16T04:15:33.939Z,51.30
2023-02-16T04:18:00.694Z,51.30
2023-02-16T04:20:29.444Z,51.20
2023-02-16T04:22:56.034Z,51.50
2023-02-16T04:25:22.731Z,51.30
2023-02-16T04:27:49.787Z,51.30
2023-02-16T04:30:18.371Z,51.50
2023-02-16T04:32:45.174Z,51.60
2023-02-16T04:35:11.961Z,51.40
2023-02-16T04:37:38.626Z,51.60
2023-02-16T04:40:05.918Z,51.80
2023-02-16T04:42:32.581Z,51.60
2023-02-16T04:44:59.240Z,51.50
2023-02-16T04:47:26.689Z,51.60
2023-02-16T04:49:53.685Z,51.50
2023-02-16T04:52:20.483Z,51.60
2023-02-16T04:54:47.067Z,51.40
2023-02-16T04:57:13.644Z,51.80
2023-02-16T04:59:40.181Z,51.40
2023-02-16T05:02:06.931Z,51.30
2023-02-16T05:04:33.563Z,51.40
2023-02-16T05:07:00.170Z,51.70
2023-02-16T05:09:26.785Z,51.20
2023-02-16T05:12:16.670Z,51.20
2023-02-16T05:14:44.491Z,51.50
2023-02-16T05:17:21.654Z,51.20
2023-02-16T05:19:50.060Z,51.20
2023-02-16T05:22:17.239Z,51.50
2023-02-16T05:24:44.344Z,51.30
2023-02-16T05:27:15.911Z,51.10
2023-02-16T05:29:42.502Z,51.10
2023-02-16T05:32:09.498Z,51.10
2023-02-16T05:34:36.714Z,51.10
2023-02-16T05:37:03.302Z,51.10
2023-02-16T05:39:30.016Z,51.10
2023-02-16T05:41:56.593Z,51.50
2023-02-16T05:44:23.249Z,51.10
2023-02-16T05:46:49.840Z,51.00
2023-02-16T05:49:17.081Z,51.40
2023-02-16T05:51:43.667Z,51.10
2023-02-16T05:54:10.881Z,50.80
2023-02-16T05:56:37.452Z,50.70
2023-02-16T05:59:04.030Z,50.70
2023-02-16T06:01:30.579Z,50.80
2023-02-16T06:03:57.217Z,51.00
2023-02-16T06:06:23.879Z,51.00
2023-02-16T06:08:50.497Z,51.20
2023-02-16T06:11:35.768Z,51.30
2023-02-16T06:14:07.189Z,50.90
2023-02-16T06:16:34.166Z,50.60
2023-02-16T06:19:01.283Z,50.90
2023-02-16T06:21:28.604Z,51.10
2023-02-16T06:23:55.272Z,50.60
2023-02-16T06:26:21.942Z,51.10
2023-02-16T06:28:48.496Z,51.30
2023-02-16T06:31:15.229Z,50.50
2023-02-16T06:33:43.281Z,50.80
2023-02-16T06:36:10.187Z,51.00
2023-02-16T06:38:36.799Z,50.50
2023-02-16T06:41:03.860Z,50.50
2023-02-16T06:43:30.956Z,50.70
2023-02-16T06:45:57.806Z,50.70
2023-02-16T06:48:24.464Z,50.40
2023-02-16T06:50:51.064Z,50.40
2023-02-16T06:53:17.879Z,50.80
2023-02-16T06:55:44.670Z,50.40
2023-02-16T06:58:11.232Z,50.90
2023-02-16T07:00:38.309Z,50.50
2023-02-16T07:03:04.932Z,50.40
2023-02-16T07:05:31.618Z,50.40
2023-02-16T07:07:58.220Z,50.30
2023-02-16T07:10:24.823Z,50.30
2023-02-16T07:12:51.466Z,50.30
2023-02-16T07:15:18.080Z,50.10
2023-02-16T07:17:44.693Z,50.50
2023-02-16T07:20:12.765Z,50.60
2023-02-16T07:22:39.549Z,50.20
2023-02-16T07:25:06.344Z,50.20
2023-02-16T07:27:32.906Z,49.90
2023-02-16T07:29:59.572Z,49.50
2023-02-16T07:32:27.057Z,50.00
2023-02-16T07:34:53.680Z,50.00
2023-02-16T07:37:20.228Z,49.70
2023-02-16T07:39:46.878Z,49.80
2023-02-16T07:42:13.501Z,49.80
2023-02-16T07:44:40.113Z,49.50
2023-02-16T07:47:06.678Z,49.80
2023-02-16T07:49:33.250Z,50.00
2023-02-16T07:51:59.848Z,50.50
2023-02-16T07:54:26.437Z,50.40
2023-02-16T07:56:53.026Z,49.70
2023-02-16T07:59:19.581Z,49.70
2023-02-16T08:01:46.257Z,50.10
2023-02-16T08:04:12.889Z,49.90
2023-02-16T08:06:39.775Z,49.90
2023-02-16T08:09:06.388Z,49.90
2023-02-16T08:11:32.984Z,49.90
2023-02-16T08:14:00.294Z,50.10
2023-02-16T08:16:28.066Z,49.90
2023-02-16T08:18:58.525Z,50.20
2023-02-16T08:21:26.216Z,50.70
2023-02-16T08:23:54.694Z,50.10
2023-02-16T08:26:22.214Z,50.10
2023-02-16T08:28:50.027Z,50.80
2023-02-16T08:31:18.926Z,50.80
2023-02-16T08:33:46.083Z,50.70
2023-02-16T08:36:20.486Z,51.40
2023-02-16T08:38:50.090Z,50.70
2023-02-16T08:41:17.807Z,50.70
2023-02-16T08:43:44.570Z,50.60
2023-02-16T08:46:11.510Z,50.80
2023-02-16T08:48:40.068Z,50.70
2023-02-16T08:51:07.280Z,50.90
2023-02-16T08:53:34.458Z,50.90
2023-02-16T08:56:03.232Z,50.80
2023-02-16T08:58:30.786Z,50.80
2023-02-16T09:01:03.389Z,51.60
2023-02-16T09:03:32.518Z,50.90
2023-02-16T09:06:01.201Z,50.80
2023-02-16T09:08:28.491Z,51.00
2023-02-16T09:10:55.585Z,51.10
2023-02-16T09:13:22.180Z,51.10
2023-02-16T09:15:48.802Z,51.10
2023-02-16T09:18:16.615Z,51.10
2023-02-16T09:20:46.419Z,51.40
2023-02-16T09:23:13.512Z,51.30
2023-02-16T09:25:41.447Z,51.30
2023-02-16T09:28:09.539Z,51.30
2023-02-16T09:30:38.331Z,51.40
2023-02-16T09:33:05.308Z,51.40
2023-02-16T09:35:32.518Z,51.60
2023-02-16T09:37:59.170Z,51.70
2023-02-16T09:40:25.983Z,51.70
2023-02-16T09:42:52.594Z,51.60
2023-02-16T09:45:20.427Z,51.80
2023-02-16T09:47:49.070Z,51.70
2023-02-16T09:50:38.216Z,51.90
2023-02-16T09:53:13.065Z,51.70
2023-02-16T09:55:49.132Z,52.00
2023-02-16T09:58:18.888Z,52.10
2023-02-16T10:00:54.157Z,52.20
2023-02-16T10:03:39.545Z,52.00
2023-02-16T10:06:06.317Z,52.00
2023-02-16T10:08:41.747Z,51.80
2023-02-16T10:11:33.528Z,51.70
2023-02-16T10:14:04.339Z,51.70
2023-02-16T10:16:32.308Z,51.80
2023-02-16T10:19:00.601Z,51.70
2023-02-16T10:21:29.431Z,51.90
2023-02-16T10:24:03.785Z,51.90
2023-02-16T10:26:36.330Z,52.00
2023-02-16T10:29:06.110Z,52.10
2023-02-16T10:31:35.931Z,52.00
2023-02-16T10:34:12.330Z,52.20
2023-02-16T10:36:58.102Z,52.40
2023-02-16T10:39:43.416Z,52.30
2023-02-16T10:42:16.425Z,52.30
2023-02-16T10:44:48.844Z,52.40
2023-02-16T10:47:27.944Z,52.50
2023-02-16T10:49:55.412Z,52.60
2023-02-16T10:52:22.138Z,52.60
2023-02-16T10:54:48.716Z,52.50
2023-02-16T10:57:24.458Z,52.60
2023-02-16T10:59:51.309Z,52.60
2023-02-16T11:02:20.971Z,52.70
2023-02-16T11:04:49.190Z,52.60
2023-02-16T11:07:21.018Z,52.50
2023-02-16T11:09:51.420Z,52.50
2023-02-16T11:12:42.769Z,52.60
2023-02-16T11:15:34.239Z,52.70
2023-02-16T11:18:04.875Z,52.80
2023-02-16T11:20:33.340Z,52.30
2023-02-16T11:23:12.989Z,52.60
2023-02-16T11:25:39.696Z,52.50
2023-02-16T11:28:06.472Z,52.60
2023-02-16T11:30:37.343Z,52.80
2023-02-16T11:33:07.082Z,52.50
2023-02-16T11:35:41.051Z,52.90
2023-02-16T11:38:23.294Z,53.00
2023-02-16T11:40:52.648Z,52.70
2023-02-16T11:43:19.375Z,52.70
2023-02-16T11:45:56.571Z,52.60
2023-02-16T11:48:31.361Z,52.40
2023-02-16T11:51:02.942Z,52.40
2023-02-16T11:53:32.649Z,52.40
2023-02-16T11:56:18.171Z,52.40
2023-02-16T11:58:45.144Z,52.50
2023-02-16T12:01:23.640Z,52.50
2023-02-16T12:03:57.037Z,52.50
2023-02-16T12:06:26.616Z,52.60
2023-02-16T12:08:56.136Z,52.40
2023-02-16T12:11:26.378Z,52.40
2023-02-16T12:14:05.401Z,52.50
2023-02-16T12:16:45.619Z,52.60
2023-02-16T12:19:12.327Z,52.80
2023-02-16T12:21:50.712Z,52.80
2023-02-16T12:24:44.273Z,52.70
2023-02-16T12:27:21.063Z,52.60
2023-02-16T12:29:53.903Z,52.60
2023-02-16T12:32:39.171Z,53.40
2023-02-16T12:35:05.966Z,52.90
2023-02-16T12:37:42.595Z,52.80
2023-02-16T12:40:27.543Z,53.20
2023-02-16T12:42:54.079Z,52.90
2023-02-16T12:45:22.707Z,52.70
2023-02-16T12:47:54.267Z,52.80
2023-02-16T12:50:27.637Z,53.00
2023-02-16T12:53:01.905Z,53.00
2023-02-16T12:55:31.473Z,53.00
2023-02-16T12:58:01.817Z,53.00
2023-02-16T13:00:41.170Z,53.00
2023-02-16T13:03:23.681Z,53.20
2023-02-16T13:05:57.485Z,52.90
2023-02-16T13:08:39.172Z,52.60
2023-02-16T13:11:11.974Z,52.40
2023-02-16T13:13:39.496Z,52.20
2023-02-16T13:16:14.977Z,52.10
2023-02-16T13:18:48.905Z,52.20
2023-02-16T13:21:42.471Z,52.10
2023-02-16T13:24:18.714Z,52.20
2023-02-16T13:26:45.300Z,52.20
2023-02-16T13:29:23.358Z,52.10
2023-02-16T13:31:53.081Z,52.10
2023-02-16T13:34:26.815Z,52.20
2023-02-16T13:37:04.044Z,52.30
2023-02-16T13:39:30.827Z,52.30
2023-02-16T13:42:26.777Z,52.40
2023-02-16T13:44:58.353Z,52.40
2023-02-16T13:47:30.127Z,52.50
2023-02-16T13:49:58.682Z,52.70
2023-02-16T13:52:35.892Z,52.60
2023-02-16T13:55:04.531Z,52.60
2023-02-16T13:57:50.365Z,52.50
2023-02-16T14:00:38.128Z,52.60
2023-02-16T14:03:12.229Z,52.60
2023-02-16T14:05:40.944Z,52.70
2023-02-16T14:08:10.856Z,52.70
2023-02-16T14:10:55.873Z,52.60
2023-02-16T14:13:35.243Z,52.60
2023-02-16T14:16:06.215Z,52.60
2023-02-16T14:18:44.780Z,52.70
2023-02-16T14:21:26.409Z,52.70
2023-02-16T14:23:57.188Z,52.90
2023-02-16T14:26:24.378Z,52.90
2023-02-16T14:28:58.666Z,52.90
2023-02-16T14:31:27.395Z,52.90
2023-02-16T14:34:05.609Z,52.60
2023-02-16T14:36:33.209Z,52.70
2023-02-16T14:39:00.822Z,52.90
2023-02-16T14:41:32.399Z,52.90
2023-02-16T14:44:05.007Z,53.00
2023-02-16T14:46:49.981Z,53.00
2023-02-16T14:49:35.368Z,52.90
2023-02-16T14:52:18.535Z,53.10
2023-02-16T14:54:47.884Z,53.00
2023-02-16T14:57:16.593Z,53.00
2023-02-16T14:59:50.722Z,53.10
2023-02-16T15:02:36.504Z,53.10
2023-02-16T15:05:16.257Z,52.90
2023-02-16T15:07:46.307Z,52.70
2023-02-16T15:10:18.381Z,52.60
2023-02-16T15:12:45.048Z,52.50
2023-02-16T15:15:18.253Z,52.70
2023-02-16T15:17:45.868Z,52.30
2023-02-16T15:20:29.680Z,52.40
2023-02-16T15:22:57.711Z,52.40
2023-02-16T15:25:32.867Z,52.70
2023-02-16T15:28:00.609Z,52.50
2023-02-16T15:30:28.361Z,52.60
2023-02-16T15:32:57.888Z,52.80
2023-02-16T15:35:26.798Z,52.90
2023-02-16T15:38:00.837Z,52.90
2023-02-16T15:40:29.815Z,53.10
2023-02-16T15:42:58.902Z,53.10
2023-02-16T15:45:33.076Z,53.80
2023-02-16T15:48:15.174Z,53.20
2023-02-16T15:50:42.890Z,53.20
2023-02-16T15:53:13.803Z,53.10
2023-02-16T15:55:45.264Z,52.90
2023-02-16T15:58:14.842Z,52.90
2023-02-16T16:00:42.388Z,53.00
2023-02-16T16:03:10.355Z,53.10
2023-02-16T16:05:36.952Z,53.20
2023-02-16T16:08:03.717Z,53.00
2023-02-16T16:10:36.654Z,53.00
2023-02-16T16:13:06.583Z,53.20
2023-02-16T16:15:35.938Z,53.20
2023-02-16T16:18:05.222Z,53.20
2023-02-16T16:20:39.189Z,53.20
2023-02-16T16:23:07.178Z,53.20
2023-02-16T16:25:33.729Z,53.20
2023-02-16T16:28:00.783Z,53.20
2023-02-16T16:30:29.563Z,53.20
2023-02-16T16:33:10.257Z,53.00
2023-02-16T16:35:44.369Z,53.40
2023-02-16T16:38:27.627Z,53.10
2023-02-16T16:40:58.596Z,53.20
2023-02-16T16:43:28.103Z,53.20
2023-02-16T16:45:57.297Z,53.10
2023-02-16T16:48:30.164Z,53.10
2023-02-16T16:51:11.815Z,53.30
2023-02-16T16:53:41.501Z,53.60
2023-02-16T16:56:12.213Z,53.70
2023-02-16T16:58:38.816Z,53.40
2023-02-16T17:01:05.793Z,53.20
2023-02-16T17:03:32.482Z,53.30
2023-02-16T17:05:59.087Z,53.10
2023-02-16T17:08:25.698Z,52.70
2023-02-16T17:10:52.345Z,52.70
2023-02-16T17:13:20.862Z,52.70
2023-02-16T17:15:59.595Z,52.80
2023-02-16T17:18:26.195Z,52.90
2023-02-16T17:20:52.763Z,52.90
2023-02-16T17:23:20.686Z,52.90
2023-02-16T17:25:47.332Z,52.90
2023-02-16T17:28:14.724Z,53.00
2023-02-16T17:30:41.493Z,52.90
2023-02-16T17:33:09.533Z,52.90
2023-02-16T17:35:40.315Z,53.10
2023-02-16T17:38:08.375Z,52.90
2023-02-16T17:40:34.953Z,53.00
2023-02-16T17:43:01.560Z,53.00
2023-02-16T17:45:28.124Z,52.90
2023-02-16T17:47:54.701Z,53.00
2023-02-16T17:50:21.318Z,53.10
2023-02-16T17:52:47.940Z,53.10
2023-02-16T17:55:14.792Z,53.00
2023-02-16T17:57:41.716Z,53.00
2023-02-16T18:00:13.930Z,53.60
2023-02-16T18:02:40.485Z,53.00
2023-02-16T18:05:07.353Z,53.00
2023-02-16T18:07:33.917Z,53.00
2023-02-16T18:10:00.625Z,53.00
2023-02-16T18:12:28.487Z,53.00
2023-02-16T18:14:55.231Z,53.00
2023-02-16T18:17:22.053Z,52.80
2023-02-16T18:19:48.623Z,53.60
2023-02-16T18:22:15.338Z,53.10
2023-02-16T18:24:44.281Z,53.20
2023-02-16T18:27:10.887Z,53.00
2023-02-16T18:29:37.534Z,53.10
2023-02-16T18:32:04.411Z,53.20
2023-02-16T18:34:32.444Z,53.40
2023-02-16T18:36:59.162Z,53.30
2023-02-16T18:39:25.920Z,53.00
2023-02-16T18:41:52.505Z,53.30
2023-02-16T18:44:19.118Z,53.10
2023-02-16T18:46:45.749Z,52.90
2023-02-16T18:49:12.355Z,52.60
2023-02-16T18:51:38.908Z,52.60
2023-02-16T18:54:05.540Z,52.60
2023-02-16T18:56:32.823Z,52.60
2023-02-16T18:58:59.390Z,52.70
2023-02-16T19:01:28.221Z,52.70
2023-02-16T19:03:54.856Z,52.70
2023-02-16T19:06:21.610Z,52.80
2023-02-16T19:08:48.285Z,52.80
2023-02-16T19:11:14.888Z,52.70
2023-02-16T19:13:41.444Z,52.70
2023-02-16T19:16:08.635Z,52.80
2023-02-16T19:18:35.488Z,52.80
2023-02-16T19:21:09.739Z,52.90
2023-02-16T19:23:36.843Z,52.90
2023-02-16T19:26:07.719Z,53.00
2023-02-16T19:28:35.074Z,52.80
2023-02-16T19:31:03.446Z,52.90
2023-02-16T19:33:30.757Z,52.60
2023-02-16T19:36:05.604Z,52.70
2023-02-16T19:38:32.629Z,52.90
2023-02-16T19:40:59.868Z,52.60
2023-02-16T19:43:26.668Z,52.70
2023-02-16T19:45:53.299Z,52.60
2023-02-16T19:48:22.474Z,52.70
2023-02-16T19:50:49.095Z,52.60
2023-02-16T19:53:16.022Z,52.70
2023-02-16T19:55:42.759Z,53.50
2023-02-16T19:58:09.429Z,52.70
2023-02-16T20:00:36.519Z,52.70
2023-02-16T20:03:03.640Z,52.80
2023-02-16T20:05:30.514Z,52.90
2023-02-16T20:07:57.096Z,52.80
2023-02-16T20:10:23.748Z,52.70
2023-02-16T20:12:50.351Z,52.90
2023-02-16T20:15:17.059Z,53.00
2023-02-16T20:17:43.647Z,52.60
2023-02-16T20:20:10.370Z,53.20
2023-02-16T20:22:37.029Z,53.00
2023-02-16T20:25:03.983Z,52.70
2023-02-16T20:27:30.538Z,52.90
2023-02-16T20:29:57.151Z,53.10
2023-02-16T20:32:27.956Z,52.60
2023-02-16T20:34:54.494Z,52.50
2023-02-16T20:37:21.796Z,52.50
2023-02-16T20:39:48.483Z,52.40
2023-02-16T20:42:15.174Z,52.40
2023-02-16T20:44:41.805Z,52.90
2023-02-16T20:47:10.214Z,52.80
2023-02-16T20:49:36.895Z,52.50
2023-02-16T20:52:03.517Z,52.50
2023-02-16T20:54:30.193Z,52.60
2023-02-16T20:56:56.849Z,52.60
2023-02-16T20:59:23.450Z,52.50
2023-02-16T21:01:52.334Z,52.60
2023-02-16T21:04:19.355Z,52.60
2023-02-16T21:06:46.306Z,52.70
2023-02-16T21:09:13.208Z,52.60
2023-02-16T21:11:40.198Z,52.60
2023-02-16T21:14:08.682Z,52.60
2023-02-16T21:16:35.873Z,52.40
2023-02-16T21:19:04.071Z,53.10
2023-02-16T21:21:32.071Z,52.80
2023-02-16T21:23:58.867Z,52.80
2023-02-16T21:26:25.898Z,52.80
2023-02-16T21:28:52.742Z,52.80
2023-02-16T21:31:20.934Z,53.30
2023-02-16T21:33:47.891Z,52.60
2023-02-16T21:36:16.366Z,52.60
2023-02-16T21:38:43.358Z,52.70
2023-02-16T21:41:27.467Z,53.20
2023-02-16T21:43:57.249Z,52.80
2023-02-16T21:46:23.956Z,53.00
2023-02-16T21:48:50.604Z,52.90
2023-02-16T21:51:19.121Z,53.00
2023-02-16T21:53:46.163Z,52.80
2023-02-16T21:56:26.000Z,52.80
2023-02-16T21:58:52.804Z,52.90
2023-02-16T22:01:20.256Z,53.00
2023-02-16T22:03:46.934Z,53.50
2023-02-16T22:06:13.535Z,53.20
2023-02-16T22:08:40.136Z,53.30
2023-02-16T22:11:10.871Z,52.90
2023-02-16T22:13:38.272Z,53.10
2023-02-16T22:16:16.488Z,53.00
2023-02-16T22:18:43.486Z,53.10
2023-02-16T22:21:10.114Z,53.20
2023-02-16T22:23:39.186Z,53.70
2023-02-16T22:26:07.474Z,53.50
2023-02-16T22:28:34.299Z,53.50
2023-02-16T22:31:08.234Z,53.30
2023-02-16T22:33:35.139Z,53.30
2023-02-16T22:36:06.112Z,53.70
2023-02-16T22:38:32.930Z,53.20
2023-02-16T22:41:03.387Z,53.80
2023-02-16T22:43:30.077Z,53.00
2023-02-16T22:45:56.688Z,53.60
2023-02-16T22:48:23.438Z,53.20
2023-02-16T22:51:03.325Z,53.40
2023-02-16T22:53:30.030Z,53.10
2023-02-16T22:55:56.655Z,53.10
2023-02-16T22:58:23.366Z,53.10
2023-02-16T23:00:50.175Z,53.00
2023-02-16T23:03:17.139Z,53.10
2023-02-16T23:05:43.889Z,53.30
2023-02-16T23:08:11.353Z,53.20
2023-02-16T23:10:38.554Z,53.40
2023-02-16T23:13:06.141Z,53.30
2023-02-16T23:15:34.707Z,53.40
2023-02-16T23:18:01.300Z,53.40
2023-02-16T23:20:27.931Z,53.20
2023-02-16T23:22:54.634Z,53.30
2023-02-16T23:25:33.405Z,53.10
2023-02-16T23:28:03.542Z,53.20
2023-02-16T23:30:30.899Z,53.40
2023-02-16T23:32:57.774Z,53.30
2023-02-16T23:35:24.399Z,53.40
2023-02-16T23:37:51.011Z,53.30
2023-02-16T23:40:17.625Z,53.30
2023-02-16T23:42:44.168Z,53.30
2023-02-16T23:45:10.811Z,53.90
2023-02-16T23:47:37.474Z,54.00
2023-02-16T23:50:04.275Z,53.80
2023-02-16T23:52:30.956Z,53.60
2023-02-16T23:54:57.538Z,53.50
2023-02-16T23:57:24.184Z,53.70
2023-02-16T23:59:50.740Z,53.40
